Florence, Oregon
Current Conditions -  °F | °C
As of 12:55 AM on Wednesday 22 Oct 2014 (Local Time) from KOTH Reporting Station
Overcast Overcast  
Wind Chill: 57°   Ceiling: 3300
Heat Index: 57°   Visibility: 10mi
Dew Point: 57°   Wind: 8mph
Humidity: 100%   Direction: 180°S
Pressure: 29.88"   Gusts: NA
Location:  43.97°N, 124.1°W
Report Text: KOTH 220755Z 18007KT 10SM BKN033 OVC042 14/14 A2988 RMK AO1
Loading
Personal Weather Stations






























Interactive Weather Map
Tropical Storm Tracking
New forecast layout! Learn more

10-Day Weather Forecast

Advertisements
Track Severe Weather on mobile